Time;durP1;ratioP1;P1;durP2;ratioP2;P2;SDS_P1;SDS_P2;PMS_P1;PMS_P2;Temp;Humidity;BMP_temperature;BMP_pressure;BME280_temperature;BME280_humidity;BME280_pressure;Samples;Min_cycle;Max_cycle;Signal;HPM_P1;HPM_P2
2023/04/30 00:02:14;;;;;;;6.27;2.13;;;7.20;99.90;;;;;;4822526;29;20351;-58
2023/04/30 00:04:43;;;;;;;7.67;2.93;;;7.20;99.90;;;;;;4808092;29;20263;-59
2023/04/30 00:07:13;;;;;;;6.40;2.77;;;7.30;99.90;;;;;;4815733;29;20237;-58
2023/04/30 00:09:42;;;;;;;6.87;3.07;;;7.20;99.90;;;;;;4806021;29;20232;-59
2023/04/30 00:12:13;;;;;;;6.20;2.77;;;7.20;99.90;;;;;;4817226;29;20260;-58
2023/04/30 00:14:41;;;;;;;5.50;2.57;;;7.30;99.90;;;;;;4824638;29;20239;-59
2023/04/30 00:17:11;;;;;;;5.43;2.67;;;7.10;99.90;;;;;;4828321;29;20299;-59
2023/04/30 00:19:40;;;;;;;4.47;2.80;;;7.10;99.90;;;;;;4830958;29;20227;-58
2023/04/30 00:22:09;;;;;;;8.60;2.70;;;7.10;99.90;;;;;;4824436;29;20589;-59
2023/04/30 00:24:37;;;;;;;6.03;2.63;;;7.00;99.90;;;;;;4824105;29;20239;-58
2023/04/30 00:27:05;;;;;;;7.30;3.00;;;7.00;99.90;;;;;;4824398;29;20264;-58
2023/04/30 00:29:34;;;;;;;7.40;3.20;;;7.10;99.90;;;;;;4823908;29;20323;-58
2023/04/30 00:32:03;;;;;;;6.07;2.60;;;7.10;99.90;;;;;;4822503;29;20347;-59
2023/04/30 00:34:33;;;;;;;5.80;3.27;;;7.10;99.90;;;;;;4822724;29;20247;-58
2023/04/30 00:37:02;;;;;;;8.70;3.43;;;7.20;99.90;;;;;;4824154;29;20310;-58
2023/04/30 00:39:30;;;;;;;6.10;2.87;;;7.10;99.90;;;;;;4822732;29;20643;-59
2023/04/30 00:41:58;;;;;;;5.47;2.53;;;7.20;99.90;;;;;;4824067;29;20700;-59
2023/04/30 00:44:27;;;;;;;10.97;3.27;;;7.30;99.90;;;;;;4822657;29;20260;-58
2023/04/30 00:46:55;;;;;;;6.93;2.90;;;7.20;99.90;;;;;;4824931;29;20741;-59
2023/04/30 00:49:24;;;;;;;7.30;2.80;;;7.20;99.90;;;;;;4831620;29;20220;-58
2023/04/30 00:51:54;;;;;;;5.37;2.47;;;7.30;99.90;;;;;;4823491;29;20620;-58
2023/04/30 00:54:24;;;;;;;6.47;3.40;;;7.10;99.90;;;;;;4824169;29;20263;-59
2023/04/30 00:56:52;;;;;;;6.93;2.53;;;6.90;99.90;;;;;;4823823;29;20231;-58
2023/04/30 00:59:21;;;;;;;5.30;2.70;;;6.90;99.90;;;;;;4824094;29;20251;-59
2023/04/30 01:01:50;;;;;;;7.73;3.00;;;6.80;99.90;;;;;;4843038;24;20797;-55
2023/04/30 01:04:18;;;;;;;6.37;2.80;;;6.70;99.90;;;;;;4831861;29;20228;-56
2023/04/30 01:06:47;;;;;;;7.27;2.93;;;6.60;99.90;;;;;;4839945;29;20636;-55
2023/04/30 01:09:17;;;;;;;7.80;3.20;;;6.70;99.90;;;;;;4842220;29;20227;-55
2023/04/30 01:11:56;;;;;;;6.57;2.90;;;6.70;99.90;;;;;;4842285;29;20596;-55
2023/04/30 01:14:39;;;;;;;8.17;3.53;;;6.60;99.90;;;;;;4856157;29;20274;-55
2023/04/30 01:17:14;;;;;;;6.13;2.87;;;6.80;99.90;;;;;;4838547;29;20287;-55
2023/04/30 01:19:45;;;;;;;10.53;3.67;;;6.80;99.90;;;;;;4836529;29;20235;-55
2023/04/30 01:22:27;;;;;;;6.87;3.20;;;6.70;99.90;;;;;;4824196;29;20229;-55
2023/04/30 01:25:32;;;;;;;6.47;2.60;;;6.80;99.90;;;;;;4824124;29;20228;-55
2023/04/30 01:28:08;;;;;;;5.57;2.73;;;6.80;99.90;;;;;;4822486;29;20232;-55
2023/04/30 01:30:39;;;;;;;4.67;3.00;;;6.70;99.90;;;;;;4822194;29;20246;-55
2023/04/30 01:33:08;;;;;;;4.83;2.73;;;6.60;99.90;;;;;;4822889;29;20331;-56
2023/04/30 01:36:09;;;;;;;9.20;2.80;;;6.60;99.90;;;;;;4822433;29;20232;-55
2023/04/30 01:38:55;;;;;;;10.17;3.03;;;6.70;99.90;;;;;;4815820;29;20242;-56
2023/04/30 01:41:33;;;;;;;9.10;2.90;;;6.70;99.90;;;;;;4823243;29;20228;-55
2023/04/30 01:44:17;;;;;;;7.63;2.80;;;6.60;99.90;;;;;;4823574;29;20247;-55
2023/04/30 01:46:56;;;;;;;6.67;2.93;;;6.70;99.90;;;;;;4823051;29;20248;-56
2023/04/30 01:49:32;;;;;;;9.00;3.63;;;6.60;99.90;;;;;;4835785;29;20259;-56
2023/04/30 01:52:09;;;;;;;7.13;3.10;;;6.60;99.90;;;;;;4822169;29;20236;-55
2023/04/30 01:54:45;;;;;;;7.50;3.07;;;6.60;99.90;;;;;;4823565;29;20235;-55
2023/04/30 01:57:21;;;;;;;6.53;2.97;;;6.50;99.90;;;;;;4822404;29;20339;-56
2023/04/30 01:59:51;;;;;;;11.90;3.47;;;6.40;99.90;;;;;;4822216;29;20343;-55
2023/04/30 02:02:19;;;;;;;7.07;3.20;;;6.50;99.90;;;;;;4821512;29;20244;-55
2023/04/30 02:04:48;;;;;;;5.30;2.80;;;6.60;99.90;;;;;;4825316;29;20232;-55
2023/04/30 02:07:31;;;;;;;7.53;3.57;;;6.50;99.90;;;;;;4807392;29;20336;-55
2023/04/30 02:09:59;;;;;;;5.37;3.23;;;6.50;99.90;;;;;;4822273;29;20245;-55
2023/04/30 02:12:28;;;;;;;6.43;2.90;;;6.40;99.90;;;;;;4808346;29;20315;-55
2023/04/30 02:14:58;;;;;;;6.80;3.00;;;6.30;99.90;;;;;;4807250;29;20237;-55
2023/04/30 02:17:26;;;;;;;6.97;3.43;;;6.20;99.90;;;;;;4819126;29;20318;-55
2023/04/30 02:19:54;;;;;;;5.60;2.67;;;6.30;99.90;;;;;;4831480;29;20275;-55
2023/04/30 02:22:23;;;;;;;8.27;3.67;;;6.40;99.90;;;;;;4826895;29;20288;-56
2023/04/30 02:24:52;;;;;;;7.60;3.47;;;6.40;99.90;;;;;;4826279;29;20224;-55
2023/04/30 02:27:20;;;;;;;9.23;3.40;;;6.50;99.90;;;;;;4826136;29;20246;-56
2023/04/30 02:29:49;;;;;;;6.33;2.90;;;6.60;99.90;;;;;;4824906;29;20228;-55
2023/04/30 02:32:18;;;;;;;11.63;3.67;;;6.40;99.90;;;;;;4824475;29;20732;-56
2023/04/30 02:34:46;;;;;;;7.00;3.47;;;6.50;99.90;;;;;;4824810;29;20722;-55
2023/04/30 02:37:15;;;;;;;7.87;3.00;;;6.40;99.90;;;;;;4826227;29;20251;-55
2023/04/30 02:39:43;;;;;;;9.93;3.80;;;6.40;99.90;;;;;;4824633;29;20236;-55
2023/04/30 02:42:11;;;;;;;6.37;2.93;;;6.30;99.90;;;;;;4825936;29;20231;-55
2023/04/30 02:44:40;;;;;;;7.50;3.53;;;6.30;99.90;;;;;;4824558;29;20696;-55
2023/04/30 02:47:08;;;;;;;7.57;3.20;;;6.30;99.90;;;;;;4829641;29;20226;-55
2023/04/30 02:49:37;;;;;;;6.93;3.73;;;6.30;99.90;;;;;;4833135;29;20747;-55
2023/04/30 02:52:08;;;;;;;12.77;4.00;;;6.30;99.90;;;;;;4825975;29;20708;-54
2023/04/30 02:54:36;;;;;;;8.80;3.80;;;6.10;99.90;;;;;;4839840;29;20239;-55
2023/04/30 02:57:07;;;;;;;7.53;3.27;;;5.90;99.90;;;;;;4824556;29;20775;-55
2023/04/30 02:59:36;;;;;;;8.57;3.77;;;5.80;99.90;;;;;;4825531;29;20228;-55
2023/04/30 03:02:04;;;;;;;7.57;3.60;;;5.80;99.90;;;;;;4823958;29;20251;-55
2023/04/30 03:04:34;;;;;;;5.53;3.37;;;5.80;99.90;;;;;;4824147;29;20235;-55
2023/04/30 03:07:05;;;;;;;6.00;3.20;;;5.70;99.90;;;;;;4833499;29;20250;-55
2023/04/30 03:09:35;;;;;;;7.53;3.17;;;5.60;99.90;;;;;;4843767;29;20763;-56
2023/04/30 03:12:03;;;;;;;8.87;3.63;;;5.50;99.90;;;;;;4842777;29;20254;-55
2023/04/30 03:14:31;;;;;;;9.00;3.67;;;5.40;99.90;;;;;;4843344;29;20596;-55
2023/04/30 03:16:59;;;;;;;7.30;3.30;;;5.40;99.90;;;;;;4839036;29;20249;-55
2023/04/30 03:19:28;;;;;;;8.93;4.10;;;5.50;99.90;;;;;;4835750;29;20723;-54
2023/04/30 03:21:56;;;;;;;8.13;3.87;;;5.40;99.90;;;;;;4825081;29;20238;-55
2023/04/30 03:24:26;;;;;;;5.97;3.63;;;5.40;99.90;;;;;;4825532;29;20236;-55
2023/04/30 03:26:54;;;;;;;6.33;3.60;;;5.40;99.90;;;;;;4825250;29;20247;-55
2023/04/30 03:29:23;;;;;;;8.47;4.47;;;5.50;99.90;;;;;;4824010;29;20284;-55
2023/04/30 03:31:51;;;;;;;7.07;3.53;;;5.60;99.90;;;;;;4825171;29;20331;-55
2023/04/30 03:34:20;;;;;;;7.10;4.67;;;5.70;99.90;;;;;;4824913;29;20477;-55
2023/04/30 03:36:48;;;;;;;7.37;3.47;;;5.60;99.90;;;;;;4832462;29;20231;-55
2023/04/30 03:39:16;;;;;;;10.13;4.70;;;5.80;99.90;;;;;;4839184;29;20600;-55
2023/04/30 03:41:46;;;;;;;10.50;4.40;;;5.60;99.90;;;;;;4825079;29;20276;-55
2023/04/30 03:44:14;;;;;;;7.17;4.00;;;5.60;99.90;;;;;;4825260;29;20231;-55
2023/04/30 03:46:43;;;;;;;9.73;3.80;;;5.70;99.90;;;;;;4838480;29;20304;-55
2023/04/30 03:49:11;;;;;;;8.13;4.17;;;5.60;99.90;;;;;;4835555;29;20687;-55
2023/04/30 03:51:41;;;;;;;8.03;4.60;;;5.70;99.90;;;;;;4823096;29;20692;-55
2023/04/30 03:54:09;;;;;;;11.50;4.60;;;5.80;99.90;;;;;;4825020;29;20743;-55
2023/04/30 03:56:38;;;;;;;7.50;3.73;;;5.70;99.90;;;;;;4838740;29;20228;-55
2023/04/30 03:59:08;;;;;;;10.63;4.60;;;5.70;99.90;;;;;;4838747;29;20232;-55
2023/04/30 04:01:36;;;;;;;7.57;4.03;;;5.80;99.90;;;;;;4838119;29;20303;-55
2023/04/30 04:04:04;;;;;;;6.93;4.00;;;5.80;99.90;;;;;;4838938;29;20239;-55
2023/04/30 04:06:33;;;;;;;8.33;4.70;;;5.70;99.90;;;;;;4828538;29;20232;-55
2023/04/30 04:09:04;;;;;;;7.97;4.07;;;5.60;99.90;;;;;;4824741;29;20303;-55
2023/04/30 04:11:33;;;;;;;5.93;3.47;;;5.70;99.90;;;;;;4824558;29;20315;-55
2023/04/30 04:14:02;;;;;;;7.50;4.00;;;6.00;99.90;;;;;;4823405;29;20239;-55
2023/04/30 04:16:33;;;;;;;8.83;4.73;;;6.00;99.90;;;;;;4807643;29;20715;-55
2023/04/30 04:19:03;;;;;;;9.97;4.47;;;6.00;99.90;;;;;;4828509;29;20243;-55
2023/04/30 04:21:34;;;;;;;9.03;4.20;;;6.00;99.90;;;;;;4822937;29;20288;-55
2023/04/30 04:24:07;;;;;;;7.33;3.90;;;5.80;99.90;;;;;;4804992;29;20242;-55
2023/04/30 04:26:36;;;;;;;6.07;3.80;;;5.80;99.90;;;;;;4811416;29;20240;-55
2023/04/30 04:29:04;;;;;;;8.13;3.70;;;6.00;99.90;;;;;;4823404;29;20327;-55
2023/04/30 04:31:34;;;;;;;8.00;4.13;;;6.00;99.90;;;;;;4824101;29;20309;-55
2023/04/30 04:34:04;;;;;;;6.17;3.70;;;6.00;99.90;;;;;;4824520;29;20228;-55
2023/04/30 04:36:33;;;;;;;4.60;3.80;;;6.10;99.90;;;;;;4823146;29;20227;-55
2023/04/30 04:39:04;;;;;;;6.57;4.27;;;6.00;99.90;;;;;;4823154;29;20232;-55
2023/04/30 04:41:35;;;;;;;9.30;4.50;;;6.00;99.90;;;;;;4823017;29;20608;-55
2023/04/30 04:44:04;;;;;;;8.03;4.17;;;6.00;99.90;;;;;;4823079;29;20246;-55
2023/04/30 04:46:37;;;;;;;7.97;4.23;;;6.10;99.90;;;;;;4823166;29;20244;-56
2023/04/30 04:49:05;;;;;;;8.13;4.07;;;6.10;99.90;;;;;;4823184;29;20227;-55
2023/04/30 04:51:34;;;;;;;7.47;4.00;;;6.30;99.90;;;;;;4823919;29;20261;-55
2023/04/30 04:56:58;;;;;;;7.40;4.03;;;6.30;99.90;;;;;;4824296;29;20695;-56
2023/04/30 04:59:29;;;;;;;10.00;4.00;;;6.50;99.90;;;;;;4824086;29;20723;-55
2023/04/30 05:01:59;;;;;;;15.63;4.73;;;6.70;99.90;;;;;;4823721;29;20266;-56
2023/04/30 05:04:28;;;;;;;8.67;4.47;;;6.70;99.90;;;;;;4840971;29;20231;-56
2023/04/30 05:07:00;;;;;;;10.17;4.27;;;6.70;99.90;;;;;;4824699;29;20247;-56
2023/04/30 05:09:29;;;;;;;8.23;4.73;;;6.70;99.90;;;;;;4822713;29;20604;-55
2023/04/30 05:11:57;;;;;;;7.87;4.30;;;6.80;99.90;;;;;;4826599;29;20227;-55
2023/04/30 05:14:26;;;;;;;7.77;4.33;;;6.90;99.90;;;;;;4842076;29;20241;-55
2023/04/30 05:16:54;;;;;;;8.90;4.47;;;7.00;99.90;;;;;;4837041;29;20236;-55
2023/04/30 05:19:24;;;;;;;8.20;4.27;;;7.00;99.90;;;;;;4828743;29;20715;-56
2023/04/30 05:21:52;;;;;;;8.07;4.37;;;7.00;99.90;;;;;;4820337;29;20240;-56
2023/04/30 05:24:20;;;;;;;10.53;4.17;;;7.10;99.90;;;;;;4834088;29;20255;-56
2023/04/30 05:26:48;;;;;;;7.33;3.77;;;7.10;99.90;;;;;;4833397;29;20240;-56
2023/04/30 05:29:17;;;;;;;9.83;4.30;;;7.40;99.90;;;;;;4823864;29;20242;-56
2023/04/30 05:31:45;;;;;;;8.27;4.40;;;7.60;99.90;;;;;;4823332;29;20264;-56
2023/04/30 05:34:13;;;;;;;8.13;3.73;;;7.80;99.90;;;;;;4824007;29;20232;-55
2023/04/30 05:36:43;;;;;;;5.77;3.90;;;8.00;99.90;;;;;;4823489;29;20565;-56
2023/04/30 05:39:11;;;;;;;6.77;4.03;;;8.10;99.90;;;;;;4826750;29;20739;-56
2023/04/30 05:41:39;;;;;;;9.10;4.57;;;8.30;99.90;;;;;;4827143;29;20243;-56
2023/04/30 05:44:07;;;;;;;7.00;4.20;;;8.30;99.90;;;;;;4827300;29;20229;-56
2023/04/30 05:46:35;;;;;;;7.60;4.10;;;8.40;99.90;;;;;;4827201;29;20607;-56
2023/04/30 05:49:04;;;;;;;8.37;4.13;;;8.50;99.90;;;;;;4834804;29;20232;-56
2023/04/30 05:51:34;;;;;;;6.83;3.80;;;8.80;99.90;;;;;;4826734;29;20649;-56
2023/04/30 05:54:03;;;;;;;6.93;4.30;;;8.90;99.90;;;;;;4827073;29;20704;-56
2023/04/30 05:56:32;;;;;;;8.00;4.07;;;9.10;99.90;;;;;;4826484;29;20240;-56
2023/04/30 05:59:00;;;;;;;7.47;3.90;;;9.20;99.90;;;;;;4826811;29;20321;-56
2023/04/30 06:01:28;;;;;;;9.83;4.07;;;9.40;99.90;;;;;;4825896;29;20623;-56
2023/04/30 06:03:57;;;;;;;8.03;3.67;;;9.60;99.90;;;;;;4825231;29;20249;-55
2023/04/30 06:06:25;;;;;;;7.53;3.67;;;9.70;99.90;;;;;;4828354;29;20241;-55
2023/04/30 06:08:54;;;;;;;7.80;3.63;;;9.90;99.90;;;;;;4825255;29;20629;-56
2023/04/30 06:11:24;;;;;;;7.57;3.67;;;10.10;99.90;;;;;;4828961;29;20247;-56
2023/04/30 06:13:53;;;;;;;5.73;3.53;;;10.20;99.90;;;;;;4826323;29;20243;-56
2023/04/30 06:16:21;;;;;;;5.73;2.97;;;10.40;99.90;;;;;;4824152;29;20246;-56
2023/04/30 06:18:50;;;;;;;9.23;3.63;;;10.70;99.90;;;;;;4834118;29;20240;-56
2023/04/30 06:21:24;;;;;;;10.23;3.80;;;10.70;99.90;;;;;;4826405;29;20236;-56
2023/04/30 06:23:53;;;;;;;8.40;3.10;;;10.80;99.90;;;;;;4827127;29;20601;-56
2023/04/30 06:26:23;;;;;;;9.23;4.00;;;10.90;99.90;;;;;;4826261;29;20307;-56
2023/04/30 06:28:51;;;;;;;7.63;3.40;;;11.30;99.90;;;;;;4825015;29;20232;-56
2023/04/30 06:31:20;;;;;;;10.23;3.70;;;11.40;99.90;;;;;;4825755;29;20233;-56
2023/04/30 06:33:49;;;;;;;7.23;2.93;;;11.40;99.90;;;;;;4826072;29;20698;-57
2023/04/30 06:36:18;;;;;;;6.47;2.60;;;11.50;99.90;;;;;;4826221;29;20601;-57
2023/04/30 06:38:49;;;;;;;9.60;3.40;;;11.70;99.90;;;;;;4826305;29;20243;-56
2023/04/30 06:41:18;;;;;;;7.37;3.27;;;11.80;99.90;;;;;;4826236;29;20229;-56
2023/04/30 06:43:47;;;;;;;7.73;3.10;;;12.10;99.90;;;;;;4825847;29;20243;-57
2023/04/30 06:46:16;;;;;;;10.13;3.33;;;12.30;99.90;;;;;;4825902;29;20337;-56
2023/04/30 06:48:44;;;;;;;8.10;3.03;;;12.40;99.90;;;;;;4833504;29;20300;-57
2023/04/30 06:51:12;;;;;;;8.00;3.43;;;12.20;99.90;;;;;;4824878;29;20242;-57
2023/04/30 06:53:41;;;;;;;5.73;3.10;;;12.20;99.90;;;;;;4825761;29;20255;-57
2023/04/30 06:56:09;;;;;;;6.07;3.03;;;12.40;99.90;;;;;;4825770;29;20774;-57
2023/04/30 06:58:39;;;;;;;6.53;3.17;;;12.60;99.90;;;;;;4825896;29;20338;-57
2023/04/30 07:01:09;;;;;;;6.53;3.03;;;12.90;99.90;;;;;;4825457;29;20350;-57
2023/04/30 07:03:38;;;;;;;5.93;2.80;;;12.80;99.90;;;;;;4825459;29;20397;-57
2023/04/30 07:06:06;;;;;;;7.90;2.70;;;13.00;99.90;;;;;;4825998;29;20716;-57
2023/04/30 07:08:35;;;;;;;8.47;3.63;;;13.20;99.90;;;;;;4825859;29;20711;-57
2023/04/30 07:11:03;;;;;;;6.13;2.80;;;13.10;99.90;;;;;;4825957;29;20251;-57
2023/04/30 07:13:32;;;;;;;7.97;2.77;;;12.90;99.90;;;;;;4825320;29;20800;-57
2023/04/30 07:16:00;;;;;;;7.73;2.60;;;12.80;99.90;;;;;;4825484;29;20278;-57
2023/04/30 07:18:30;;;;;;;8.40;3.10;;;12.70;99.90;;;;;;4833318;29;20231;-57
2023/04/30 07:20:58;;;;;;;5.53;2.70;;;12.60;99.90;;;;;;4829831;29;20626;-57
2023/04/30 07:23:26;;;;;;;5.53;2.70;;;12.40;99.90;;;;;;4825046;29;20278;-57
2023/04/30 07:25:57;;;;;;;7.73;2.97;;;12.30;99.90;;;;;;4828305;29;20606;-57
2023/04/30 07:28:26;;;;;;;8.57;2.80;;;12.20;99.90;;;;;;4805753;29;20262;-57
2023/04/30 07:30:54;;;;;;;7.23;2.70;;;12.00;99.90;;;;;;4813694;29;20260;-57
2023/04/30 07:33:22;;;;;;;5.87;2.90;;;12.10;99.90;;;;;;4824251;29;20716;-58
2023/04/30 07:35:52;;;;;;;6.13;2.50;;;12.50;99.90;;;;;;4815880;29;20315;-58
2023/04/30 07:38:20;;;;;;;7.37;3.50;;;12.80;99.90;;;;;;4815161;29;20239;-58
2023/04/30 07:40:49;;;;;;;8.90;3.13;;;12.40;99.90;;;;;;4815143;29;20251;-58
2023/04/30 07:43:17;;;;;;;6.33;2.90;;;12.40;99.90;;;;;;4813540;29;20247;-57
2023/04/30 07:45:48;;;;;;;6.47;2.70;;;12.20;99.90;;;;;;4814631;29;20343;-57
2023/04/30 07:48:16;;;;;;;7.33;2.60;;;11.90;99.90;;;;;;4814946;29;20238;-56
2023/04/30 07:50:48;;;;;;;5.43;2.97;;;11.60;99.90;;;;;;4814895;29;20355;-58
2023/04/30 07:53:20;;;;;;;8.90;3.30;;;11.70;99.90;;;;;;4812622;29;20287;-58
2023/04/30 07:55:49;;;;;;;7.57;2.87;;;12.20;99.90;;;;;;4814246;29;20270;-58
2023/04/30 07:58:17;;;;;;;7.37;2.80;;;12.60;99.90;;;;;;4814259;29;20250;-58
2023/04/30 08:00:46;;;;;;;8.27;3.03;;;12.20;99.90;;;;;;4814761;29;20784;-57
2023/04/30 08:03:14;;;;;;;6.47;2.70;;;12.00;99.90;;;;;;4812350;29;20711;-57
2023/04/30 08:05:43;;;;;;;7.67;3.10;;;12.70;99.90;;;;;;4814502;29;20247;-58
2023/04/30 08:08:16;;;;;;;5.80;2.67;;;13.30;99.90;;;;;;4814584;29;20250;-58
2023/04/30 08:10:45;;;;;;;8.53;3.17;;;14.10;99.90;;;;;;4814970;29;20715;-57
2023/04/30 08:13:14;;;;;;;7.67;3.33;;;14.70;99.90;;;;;;4812687;29;20243;-57
2023/04/30 08:15:42;;;;;;;10.00;3.30;;;14.60;99.90;;;;;;4814425;29;20235;-58
2023/04/30 08:18:10;;;;;;;8.93;3.20;;;14.40;99.90;;;;;;4815065;29;20716;-57
2023/04/30 08:20:39;;;;;;;7.63;2.87;;;14.00;99.90;;;;;;4813900;29;20239;-57
2023/04/30 08:23:07;;;;;;;8.73;3.00;;;13.90;99.90;;;;;;4811483;29;20343;-57
2023/04/30 08:25:36;;;;;;;9.30;3.20;;;14.10;99.90;;;;;;4813607;29;20597;-58
2023/04/30 08:28:07;;;;;;;9.70;3.37;;;13.70;99.90;;;;;;4814181;29;20247;-57
2023/04/30 08:30:35;;;;;;;8.20;2.80;;;13.20;99.90;;;;;;4831545;29;20312;-57
2023/04/30 08:33:07;;;;;;;8.33;3.20;;;12.80;99.90;;;;;;4811681;29;20576;-57
2023/04/30 08:35:35;;;;;;;7.87;3.10;;;12.70;99.90;;;;;;4814158;29;20233;-57
2023/04/30 08:38:05;;;;;;;6.77;2.50;;;13.30;99.90;;;;;;4815081;29;20214;-57
2023/04/30 08:40:36;;;;;;;4.73;2.80;;;14.10;99.90;;;;;;4814555;29;20602;-56
2023/04/30 08:43:21;;;;;;;6.10;2.87;;;14.80;99.90;;;;;;4811043;29;20676;-56
2023/04/30 08:45:51;;;;;;;7.40;3.03;;;15.40;99.90;;;;;;4814265;29;20568;-57
2023/04/30 08:48:23;;;;;;;5.57;2.83;;;15.80;99.90;;;;;;4814569;29;20205;-57
2023/04/30 08:50:52;;;;;;;8.87;2.90;;;16.10;99.90;;;;;;4813889;29;20241;-57
2023/04/30 08:53:21;;;;;;;6.53;3.03;;;15.60;99.90;;;;;;4811464;29;20269;-56
2023/04/30 08:55:50;;;;;;;3.63;2.60;;;15.40;99.90;;;;;;4816120;29;20268;-56
2023/04/30 08:58:22;;;;;;;7.40;2.90;;;15.40;99.90;;;;;;4815123;29;20237;-57
2023/04/30 09:00:51;;;;;;;6.20;3.00;;;15.70;99.90;;;;;;4813772;29;20258;-56
2023/04/30 09:03:22;;;;;;;4.87;2.37;;;16.20;99.90;;;;;;4809489;29;20244;-56
2023/04/30 09:05:51;;;;;;;5.67;2.53;;;16.70;99.90;;;;;;4813157;29;20236;-57
2023/04/30 09:08:41;;;;;;;7.40;3.17;;;16.30;99.90;;;;;;4813601;29;20270;-57
2023/04/30 09:11:23;;;;;;;4.70;2.67;;;16.10;99.90;;;;;;4813221;29;20244;-57
2023/04/30 09:13:56;;;;;;;5.67;2.73;;;16.20;99.90;;;;;;4814581;29;20263;-58
2023/04/30 09:16:45;;;;;;;6.90;2.77;;;16.90;99.90;;;;;;4816729;29;20240;-57
2023/04/30 09:19:24;;;;;;;4.97;2.70;;;17.60;99.90;;;;;;4820872;29;20244;-57
2023/04/30 09:21:56;;;;;;;5.80;2.93;;;17.80;99.90;;;;;;4814832;29;20240;-57
2023/04/30 09:24:24;;;;;;;7.93;3.20;;;17.70;99.90;;;;;;4816221;29;20789;-57
2023/04/30 09:26:54;;;;;;;8.47;3.10;;;18.20;99.90;;;;;;4816270;29;20245;-57
2023/04/30 09:29:37;;;;;;;5.73;2.80;;;17.90;99.90;;;;;;4817079;29;20301;-57
2023/04/30 09:32:09;;;;;;;6.20;3.23;;;18.60;99.90;;;;;;4812533;29;20255;-57
2023/04/30 09:34:37;;;;;;;5.73;3.00;;;18.80;99.90;;;;;;4816558;29;20738;-57
2023/04/30 09:37:06;;;;;;;7.00;3.03;;;19.00;99.90;;;;;;4816110;29;20300;-57
2023/04/30 09:39:34;;;;;;;5.07;2.97;;;18.70;99.90;;;;;;4816369;29;20237;-57
2023/04/30 09:42:09;;;;;;;6.93;2.97;;;18.70;99.90;;;;;;4814231;29;20244;-57
2023/04/30 09:44:42;;;;;;;5.37;3.03;;;18.50;99.90;;;;;;4816189;29;20322;-57
2023/04/30 09:47:16;;;;;;;7.00;3.20;;;18.20;99.90;;;;;;4816932;29;20232;-57
2023/04/30 09:49:44;;;;;;;6.53;3.00;;;18.00;99.90;;;;;;4817726;29;20776;-57
2023/04/30 09:52:15;;;;;;;7.23;3.17;;;17.60;99.90;;;;;;4813934;29;20238;-56
2023/04/30 09:54:45;;;;;;;4.83;2.80;;;17.00;99.90;;;;;;4819196;29;20246;-58
2023/04/30 09:57:15;;;;;;;5.20;3.10;;;17.40;99.90;;;;;;4825900;29;20239;-57
2023/04/30 09:59:47;;;;;;;6.73;3.30;;;17.40;99.90;;;;;;4843160;29;20263;-57
2023/04/30 10:02:17;;;;;;;7.10;3.13;;;17.70;99.90;;;;;;4823293;29;20714;-57
2023/04/30 10:04:48;;;;;;;4.60;2.50;;;18.70;99.90;;;;;;4826313;29;20228;-57
2023/04/30 10:07:19;;;;;;;4.57;3.00;;;19.20;99.90;;;;;;4826639;29;20331;-57
2023/04/30 10:09:52;;;;;;;4.90;2.90;;;19.20;99.90;;;;;;4826345;29;20644;-57
2023/04/30 10:12:24;;;;;;;5.37;2.90;;;19.00;99.90;;;;;;4826710;29;20312;-57
2023/04/30 10:14:58;;;;;;;6.60;3.27;;;18.70;99.90;;;;;;4826584;29;20726;-57
2023/04/30 10:17:30;;;;;;;7.60;3.07;;;18.60;99.90;;;;;;4832409;29;20717;-57
2023/04/30 10:20:04;;;;;;;4.57;2.60;;;18.00;99.90;;;;;;4828653;29;20229;-57
2023/04/30 10:22:35;;;;;;;6.53;3.00;;;17.80;99.90;;;;;;4825926;29;20297;-57
2023/04/30 10:25:03;;;;;;;4.33;2.57;;;18.50;99.90;;;;;;4823106;29;20230;-56
2023/04/30 10:27:33;;;;;;;6.30;3.23;;;19.50;99.90;;;;;;4827062;29;20238;-57
2023/04/30 10:30:03;;;;;;;4.77;3.20;;;19.90;99.90;;;;;;4826264;29;20648;-57
2023/04/30 10:32:38;;;;;;;5.53;2.80;;;20.30;99.90;;;;;;4825236;29;20235;-57
2023/04/30 10:35:16;;;;;;;5.13;2.77;;;19.80;99.20;;;;;;4823319;29;20246;-57
2023/04/30 10:37:51;;;;;;;9.33;3.10;;;18.60;98.90;;;;;;4824631;29;20573;-56
2023/04/30 10:40:19;;;;;;;5.57;2.73;;;18.30;99.90;;;;;;4826385;29;20707;-57
2023/04/30 10:42:48;;;;;;;6.00;2.70;;;18.00;98.90;;;;;;4826049;29;20313;-57
2023/04/30 10:45:19;;;;;;;3.60;2.17;;;18.70;99.90;;;;;;4826123;29;20235;-57
2023/04/30 10:47:47;;;;;;;7.07;3.17;;;19.30;99.90;;;;;;4833093;29;20237;-57
2023/04/30 10:50:16;;;;;;;4.00;2.50;;;19.50;98.90;;;;;;4825975;29;20792;-57
2023/04/30 10:52:44;;;;;;;5.17;2.50;;;19.20;98.60;;;;;;4825797;29;20652;-57
2023/04/30 10:55:17;;;;;;;3.47;2.40;;;19.00;97.50;;;;;;4825713;29;20338;-57
2023/04/30 10:57:47;;;;;;;6.53;2.50;;;19.50;99.70;;;;;;4825571;29;20260;-56
2023/04/30 11:00:24;;;;;;;5.17;2.30;;;19.90;99.80;;;;;;4825071;29;20267;-57
2023/04/30 11:02:57;;;;;;;6.03;2.67;;;20.00;98.10;;;;;;4842261;29;20257;-57
2023/04/30 11:05:36;;;;;;;6.57;2.73;;;19.80;99.00;;;;;;4839405;29;20230;-57
2023/04/30 11:08:05;;;;;;;5.90;2.57;;;19.70;96.60;;;;;;4825781;29;20246;-57
2023/04/30 11:10:34;;;;;;;7.23;2.90;;;19.10;98.70;;;;;;4825869;29;20243;-57
2023/04/30 11:13:09;;;;;;;5.27;2.77;;;19.20;98.00;;;;;;4825421;29;20595;-57
2023/04/30 11:15:44;;;;;;;3.80;2.10;;;19.40;97.20;;;;;;4842242;29;20242;-57
2023/04/30 11:18:13;;;;;;;3.87;2.30;;;19.60;97.20;;;;;;4828554;29;20231;-56
2023/04/30 11:20:49;;;;;;;3.63;2.30;;;20.00;96.60;;;;;;4817276;29;20257;-57
2023/04/30 11:23:18;;;;;;;3.80;2.20;;;20.20;98.10;;;;;;4815828;29;20597;-57
2023/04/30 11:26:01;;;;;;;5.87;2.57;;;20.80;97.80;;;;;;4813781;29;20613;-57
2023/04/30 11:28:33;;;;;;;4.63;2.37;;;21.00;97.30;;;;;;4813228;29;20870;-58
2023/04/30 11:31:03;;;;;;;3.97;2.40;;;21.20;96.10;;;;;;4814368;29;20252;-57
2023/04/30 11:33:33;;;;;;;6.00;2.50;;;20.70;94.90;;;;;;4814584;29;21097;-57
2023/04/30 11:36:02;;;;;;;5.33;2.73;;;19.10;95.30;;;;;;4815351;29;20239;-57
2023/04/30 11:38:35;;;;;;;6.37;2.70;;;18.70;96.60;;;;;;4813436;29;20727;-57
2023/04/30 11:41:04;;;;;;;5.87;2.70;;;18.80;96.70;;;;;;4814824;29;20235;-57
2023/04/30 11:43:34;;;;;;;7.57;2.63;;;19.70;98.50;;;;;;4814342;29;20331;-57
2023/04/30 11:46:09;;;;;;;5.17;2.40;;;19.70;97.80;;;;;;4814594;29;20243;-57
2023/04/30 11:48:39;;;;;;;3.20;2.17;;;20.10;97.70;;;;;;4812896;29;20699;-57
2023/04/30 11:51:15;;;;;;;4.30;2.00;;;20.50;97.40;;;;;;4814723;29;20235;-56
2023/04/30 11:53:46;;;;;;;5.30;2.03;;;20.60;95.70;;;;;;4814442;29;20346;-56
2023/04/30 11:56:14;;;;;;;4.63;2.10;;;20.50;95.20;;;;;;4814588;29;20240;-57
2023/04/30 11:58:42;;;;;;;5.37;2.20;;;20.20;96.80;;;;;;4813159;29;20347;-58
2023/04/30 12:01:14;;;;;;;4.57;2.13;;;20.10;96.00;;;;;;4813301;29;20254;-57
2023/04/30 12:03:44;;;;;;;5.87;2.50;;;19.60;95.90;;;;;;4814279;29;20275;-56
2023/04/30 12:06:21;;;;;;;3.53;2.10;;;19.50;96.70;;;;;;4814550;29;20248;-58
2023/04/30 12:08:50;;;;;;;5.60;2.47;;;19.10;97.20;;;;;;4812568;29;20246;-57
2023/04/30 12:11:24;;;;;;;4.13;2.13;;;18.70;98.40;;;;;;4813682;29;20239;-57
2023/04/30 12:13:53;;;;;;;3.37;2.07;;;18.30;98.40;;;;;;4814080;29;20238;-57
2023/04/30 12:16:24;;;;;;;5.43;2.10;;;18.20;98.70;;;;;;4813933;29;20238;-57
2023/04/30 12:18:53;;;;;;;4.83;2.00;;;17.70;99.50;;;;;;4812960;29;20274;-56
2023/04/30 12:21:22;;;;;;;4.77;2.30;;;17.70;99.30;;;;;;4813559;29;20252;-57
2023/04/30 12:23:51;;;;;;;4.07;2.40;;;17.80;99.90;;;;;;4814016;29;20277;-57
2023/04/30 12:26:19;;;;;;;5.83;2.50;;;17.90;99.90;;;;;;4813416;29;20250;-57
2023/04/30 12:28:49;;;;;;;3.67;2.17;;;17.50;99.90;;;;;;4811946;29;20661;-57
2023/04/30 12:31:18;;;;;;;5.77;2.30;;;17.40;99.90;;;;;;4813328;29;20257;-56
2023/04/30 12:33:56;;;;;;;6.00;2.40;;;17.20;99.90;;;;;;4814224;29;20309;-57
2023/04/30 12:36:31;;;;;;;4.77;2.47;;;16.90;99.90;;;;;;4813962;29;20324;-56
2023/04/30 12:39:17;;;;;;;7.17;2.47;;;16.90;99.90;;;;;;4812081;29;20253;-56
2023/04/30 12:41:47;;;;;;;6.07;2.33;;;16.80;99.90;;;;;;4811823;29;20600;-57
2023/04/30 12:44:20;;;;;;;7.87;2.50;;;17.00;99.90;;;;;;4813566;29;20871;-57
2023/04/30 12:46:49;;;;;;;6.60;2.30;;;16.80;99.90;;;;;;4813727;29;21466;-57
2023/04/30 12:49:26;;;;;;;5.50;2.30;;;16.90;99.90;;;;;;4811202;29;20242;-57
2023/04/30 12:52:03;;;;;;;3.30;1.97;;;16.80;99.90;;;;;;4813854;29;20252;-57
2023/04/30 12:54:32;;;;;;;3.57;2.50;;;16.80;99.90;;;;;;4813490;29;20236;-56
2023/04/30 12:57:02;;;;;;;5.10;2.20;;;16.60;99.90;;;;;;4813887;29;20331;-56
2023/04/30 12:59:31;;;;;;;5.93;2.57;;;16.60;99.90;;;;;;4812212;29;20740;-57
2023/04/30 13:02:10;;;;;;;4.03;2.00;;;16.50;99.90;;;;;;4812262;29;20396;-57
2023/04/30 13:04:40;;;;;;;6.10;2.10;;;16.60;99.90;;;;;;4813517;29;20641;-57
2023/04/30 13:07:09;;;;;;;4.90;2.47;;;16.40;99.90;;;;;;4813601;29;20323;-56
2023/04/30 13:09:38;;;;;;;5.97;2.20;;;16.40;99.90;;;;;;4811488;29;20714;-56
2023/04/30 13:12:06;;;;;;;3.17;1.90;;;16.10;99.90;;;;;;4813872;29;20597;-57